createdAt,value
2022-10-01T00:01:20.257Z,6.43
2022-10-01T00:03:48.088Z,5.05
2022-10-01T00:06:18.311Z,4.60
2022-10-01T00:08:49.387Z,4.82
2022-10-01T00:11:20.923Z,5.15
2022-10-01T00:13:48.589Z,4.63
2022-10-01T00:16:19.008Z,4.90
2022-10-01T00:18:46.878Z,4.93
2022-10-01T00:21:19.467Z,5.57
2022-10-01T00:23:46.459Z,5.60
2022-10-01T00:26:17.029Z,5.93
2022-10-01T00:28:45.772Z,5.25
2022-10-01T00:31:14.462Z,5.90
2022-10-01T00:33:44.892Z,5.95
2022-10-01T00:36:11.910Z,6.78
2022-10-01T00:38:43.015Z,7.53
2022-10-01T00:41:10.529Z,5.40
2022-10-01T00:43:42.647Z,5.15
2022-10-01T00:49:42.868Z,6.72
2022-10-01T00:52:26.734Z,6.72
2022-10-01T00:55:20.557Z,7.18
2022-10-01T00:58:07.660Z,7.70
2022-10-01T01:00:37.213Z,6.88
2022-10-01T01:03:05.768Z,8.15
2022-10-01T01:05:32.873Z,7.93
2022-10-01T01:08:01.679Z,6.57
2022-10-01T01:11:07.876Z,6.68
2022-10-01T01:13:43.290Z,8.52
2022-10-01T01:16:21.135Z,7.97
2022-10-01T01:19:00.708Z,7.72
2022-10-01T01:21:44.754Z,7.68
2022-10-01T01:24:47.480Z,8.63
2022-10-01T01:27:32.825Z,8.35
2022-10-01T01:30:12.101Z,9.38
2022-10-01T01:33:04.854Z,7.35
2022-10-01T01:35:37.726Z,8.57
2022-10-01T01:38:10.803Z,7.45
2022-10-01T01:40:40.770Z,7.45
2022-10-01T01:43:16.131Z,7.63
2022-10-01T01:45:43.728Z,8.63
2022-10-01T01:48:13.428Z,7.72
2022-10-01T01:51:04.742Z,10.30
2022-10-01T01:53:32.291Z,9.75
2022-10-01T01:56:00.888Z,9.38
2022-10-01T01:58:29.111Z,9.80
2022-10-01T02:00:57.195Z,7.55
2022-10-01T02:03:29.372Z,10.50
2022-10-01T02:06:18.093Z,8.85
2022-10-01T02:09:06.245Z,7.85
2022-10-01T02:11:38.804Z,7.78
2022-10-01T02:14:31.756Z,7.28
2022-10-01T02:17:05.556Z,7.60
2022-10-01T02:19:49.635Z,8.98
2022-10-01T02:22:24.225Z,8.57
2022-10-01T02:24:57.255Z,7.93
2022-10-01T02:27:40.528Z,7.55
2022-10-01T02:30:09.902Z,7.93
2022-10-01T02:32:40.948Z,7.40
2022-10-01T02:35:11.196Z,7.50
2022-10-01T02:37:41.024Z,8.45
2022-10-01T02:40:15.898Z,7.20
2022-10-01T02:42:50.079Z,7.47
2022-10-01T02:45:24.266Z,6.53
2022-10-01T02:48:00.574Z,7.65
2022-10-01T02:50:32.092Z,6.32
2022-10-01T02:53:17.139Z,6.70
2022-10-01T02:55:46.659Z,6.25
2022-10-01T02:58:13.779Z,6.65
2022-10-01T03:00:40.829Z,7.00
2022-10-01T03:03:07.597Z,5.07
2022-10-01T03:05:34.285Z,4.72
2022-10-01T03:08:01.223Z,4.50
2022-10-01T03:10:27.967Z,4.18
2022-10-01T03:12:54.577Z,3.97
2022-10-01T03:15:21.395Z,4.00
2022-10-01T03:17:52.765Z,3.22
2022-10-01T03:20:20.199Z,3.35
2022-10-01T03:22:47.920Z,2.72
2022-10-01T03:25:16.088Z,2.75
2022-10-01T03:27:43.938Z,3.22
2022-10-01T03:30:11.245Z,2.63
2022-10-01T03:32:37.867Z,2.65
2022-10-01T03:35:05.459Z,2.67
2022-10-01T03:37:32.212Z,2.20
2022-10-01T03:39:59.162Z,2.60
2022-10-01T03:42:25.850Z,3.83
2022-10-01T03:44:53.331Z,2.03
2022-10-01T03:47:20.087Z,2.00
2022-10-01T03:49:46.789Z,1.80
2022-10-01T03:52:13.561Z,1.70
2022-10-01T03:54:40.293Z,1.65
2022-10-01T03:57:07.060Z,1.20
2022-10-01T03:59:33.722Z,1.23
2022-10-01T04:02:01.534Z,0.93
2022-10-01T04:04:29.233Z,1.33
2022-10-01T04:06:56.009Z,1.20
2022-10-01T04:09:22.755Z,1.20
2022-10-01T04:11:49.731Z,1.95
2022-10-01T04:14:16.406Z,0.95
2022-10-01T04:16:43.530Z,1.20
2022-10-01T04:19:10.155Z,0.70
2022-10-01T04:21:38.287Z,0.80
2022-10-01T04:24:05.523Z,0.82
2022-10-01T04:26:32.595Z,0.50
2022-10-01T04:28:59.256Z,0.82
2022-10-01T04:31:26.295Z,0.57
2022-10-01T04:33:58.345Z,0.50
2022-10-01T04:36:25.862Z,0.57
2022-10-01T04:39:00.808Z,0.60
2022-10-01T04:41:31.126Z,0.60
2022-10-01T04:44:00.185Z,0.60
2022-10-01T04:46:29.458Z,0.40
2022-10-01T04:48:56.313Z,1.30
2022-10-01T04:51:22.959Z,2.20
2022-10-01T04:53:49.705Z,0.50
2022-10-01T04:56:16.555Z,0.43
2022-10-01T04:58:43.177Z,0.47
2022-10-01T05:01:09.754Z,0.93
2022-10-01T05:03:36.431Z,0.85
2022-10-01T05:06:03.169Z,0.40
2022-10-01T05:08:30.280Z,0.50
2022-10-01T05:10:59.350Z,0.50
2022-10-01T05:13:30.441Z,0.60
2022-10-01T05:15:57.830Z,0.50
2022-10-01T05:18:24.554Z,0.52
2022-10-01T05:20:51.157Z,0.50
2022-10-01T05:23:17.915Z,0.50
2022-10-01T05:25:47.035Z,0.50
2022-10-01T05:28:18.304Z,0.60
2022-10-01T05:30:46.511Z,0.70
2022-10-01T05:33:13.041Z,0.70
2022-10-01T05:35:41.235Z,0.70
2022-10-01T05:38:08.127Z,0.90
2022-10-01T05:40:36.557Z,1.00
2022-10-01T05:43:04.520Z,1.00
2022-10-01T05:45:32.396Z,0.93
2022-10-01T05:48:01.138Z,0.77
2022-10-01T05:50:33.455Z,0.90
2022-10-01T05:53:01.895Z,0.77
2022-10-01T05:55:33.619Z,0.85
2022-10-01T05:58:01.838Z,1.42
2022-10-01T06:00:29.965Z,0.77
2022-10-01T06:02:58.590Z,0.80
2022-10-01T06:05:26.027Z,0.73
2022-10-01T06:07:53.808Z,0.70
2022-10-01T06:10:22.418Z,0.60
2022-10-01T06:12:49.440Z,0.50
2022-10-01T06:15:17.647Z,0.60
2022-10-01T06:17:45.370Z,0.40
2022-10-01T06:20:17.408Z,0.40
2022-10-01T06:22:45.102Z,0.57
2022-10-01T06:25:15.948Z,0.43
2022-10-01T06:27:42.754Z,0.60
2022-10-01T06:30:10.431Z,0.50
2022-10-01T06:32:39.512Z,0.80
2022-10-01T06:35:07.346Z,0.50
2022-10-01T06:37:37.804Z,0.40
2022-10-01T06:40:06.388Z,0.43
2022-10-01T06:42:33.259Z,0.40
2022-10-01T06:45:00.233Z,0.70
2022-10-01T06:47:28.047Z,0.95
2022-10-01T06:49:54.816Z,0.30
2022-10-01T06:55:26.665Z,0.40
2022-10-01T06:57:58.800Z,1.27
2022-10-01T07:00:27.851Z,0.40
2022-10-01T07:02:55.852Z,0.43
2022-10-01T07:05:24.571Z,0.40
2022-10-01T07:07:52.155Z,0.40
2022-10-01T07:10:21.134Z,1.00
2022-10-01T07:12:51.050Z,0.70
2022-10-01T07:15:20.175Z,0.40
2022-10-01T07:17:51.530Z,0.30
2022-10-01T07:20:20.289Z,0.50
2022-10-01T07:22:48.449Z,0.50
2022-10-01T07:25:15.294Z,0.93
2022-10-01T07:27:42.147Z,1.05
2022-10-01T07:30:09.249Z,19.45
2022-10-01T07:32:36.106Z,2.03
2022-10-01T07:35:02.783Z,0.60
2022-10-01T07:37:30.204Z,0.50
2022-10-01T07:39:56.866Z,1.20
2022-10-01T07:42:23.561Z,0.93
2022-10-01T07:44:50.309Z,0.68
2022-10-01T07:47:17.848Z,1.27
2022-10-01T07:49:44.538Z,0.95
2022-10-01T07:52:13.384Z,1.67
2022-10-01T07:54:40.929Z,3.33
2022-10-01T07:57:08.276Z,3.45
2022-10-01T07:59:35.075Z,1.25
2022-10-01T08:02:01.843Z,1.75
2022-10-01T08:04:47.206Z,1.27
2022-10-01T08:07:15.492Z,1.73
2022-10-01T08:09:42.156Z,1.73
2022-10-01T08:12:08.815Z,2.60
2022-10-01T08:14:35.489Z,2.10
2022-10-01T08:17:02.053Z,1.30
2022-10-01T08:19:29.464Z,1.02
2022-10-01T08:21:57.319Z,1.55
2022-10-01T08:24:24.500Z,1.23
2022-10-01T08:27:17.447Z,1.00
2022-10-01T08:29:43.994Z,1.00
2022-10-01T08:32:11.170Z,1.00
2022-10-01T08:34:37.977Z,1.63
2022-10-01T08:37:04.920Z,2.60
2022-10-01T08:39:31.554Z,2.53
2022-10-01T08:42:03.603Z,1.08
2022-10-01T08:44:35.236Z,2.80
2022-10-01T08:47:32.710Z,1.90
2022-10-01T08:50:10.631Z,2.20
2022-10-01T08:52:44.177Z,2.38
2022-10-01T08:55:17.435Z,2.38
2022-10-01T08:57:50.281Z,2.35
2022-10-01T09:00:19.670Z,5.25
2022-10-01T09:02:48.077Z,4.10
2022-10-01T09:05:36.273Z,3.28
2022-10-01T09:08:24.399Z,5.00
2022-10-01T09:11:03.823Z,3.75
2022-10-01T09:13:57.711Z,2.85
2022-10-01T09:16:55.029Z,5.20
2022-10-01T09:19:58.016Z,5.10
2022-10-01T09:22:44.528Z,4.38
2022-10-01T09:25:23.436Z,3.08
2022-10-01T09:27:51.964Z,2.30
2022-10-01T09:30:24.889Z,4.95
2022-10-01T09:33:18.429Z,4.65
2022-10-01T09:35:54.879Z,2.05
2022-10-01T09:38:39.210Z,2.38
2022-10-01T09:41:08.633Z,3.35
2022-10-01T09:43:38.849Z,2.20
2022-10-01T09:46:13.373Z,4.80
2022-10-01T09:48:55.690Z,1.40
2022-10-01T09:51:41.191Z,1.50
2022-10-01T09:54:35.439Z,5.82
2022-10-01T09:57:08.497Z,7.78
2022-10-01T09:59:44.017Z,2.92
2022-10-01T10:02:28.711Z,2.60
2022-10-01T10:05:09.974Z,2.53
2022-10-01T10:07:42.293Z,5.28
2022-10-01T10:10:25.311Z,3.60
2022-10-01T10:13:01.179Z,1.88
2022-10-01T10:15:31.380Z,5.35
2022-10-01T10:18:08.023Z,3.40
2022-10-01T10:21:25.512Z,4.47
2022-10-01T10:23:52.293Z,11.15
2022-10-01T10:26:42.804Z,6.30
2022-10-01T10:29:35.278Z,5.85
2022-10-01T10:32:26.389Z,7.72
2022-10-01T10:35:02.046Z,4.15
2022-10-01T10:37:34.433Z,3.25
2022-10-01T10:40:01.887Z,3.63
2022-10-01T10:42:28.983Z,13.10
2022-10-01T10:45:00.981Z,5.10
2022-10-01T10:47:32.142Z,5.05
2022-10-01T10:50:02.645Z,7.18
2022-10-01T10:52:36.269Z,4.40
2022-10-01T10:55:31.791Z,4.65
2022-10-01T10:58:16.833Z,4.43
2022-10-01T11:00:50.674Z,6.32
2022-10-01T11:03:22.853Z,9.32
2022-10-01T11:05:52.889Z,6.32
2022-10-01T11:08:21.820Z,6.65
2022-10-01T11:11:08.206Z,10.77
2022-10-01T11:13:48.610Z,7.25
2022-10-01T11:16:33.953Z,4.50
2022-10-01T11:19:26.478Z,11.45
2022-10-01T11:22:22.590Z,6.45
2022-10-01T11:25:01.388Z,6.30
2022-10-01T11:27:49.124Z,6.28
2022-10-01T11:30:26.206Z,7.30
2022-10-01T11:33:08.036Z,6.03
2022-10-01T11:35:59.309Z,8.63
2022-10-01T11:38:31.813Z,5.53
2022-10-01T11:41:12.048Z,7.82
2022-10-01T11:43:58.573Z,7.28
2022-10-01T11:46:48.922Z,9.30
2022-10-01T11:49:33.303Z,8.00
2022-10-01T11:52:08.806Z,7.57
2022-10-01T11:54:41.189Z,8.38
2022-10-01T11:57:32.870Z,5.40
2022-10-01T12:00:07.799Z,8.25
2022-10-01T12:03:01.036Z,9.45
2022-10-01T12:05:31.423Z,10.82
2022-10-01T12:08:09.406Z,7.95
2022-10-01T12:10:45.227Z,11.55
2022-10-01T12:13:34.449Z,11.50
2022-10-01T12:16:06.269Z,11.40
2022-10-01T12:18:57.738Z,11.73
2022-10-01T12:21:29.577Z,11.75
2022-10-01T12:24:02.873Z,5.68
2022-10-01T12:26:29.478Z,8.20
2022-10-01T12:29:07.957Z,7.82
2022-10-01T12:31:43.683Z,9.10
2022-10-01T12:34:29.769Z,6.97
2022-10-01T12:37:20.828Z,9.15
2022-10-01T12:40:22.845Z,6.90
2022-10-01T12:43:20.744Z,7.95
2022-10-01T12:45:50.637Z,10.55
2022-10-01T12:48:49.320Z,10.40
2022-10-01T12:51:34.230Z,5.20
2022-10-01T12:54:24.574Z,14.88
2022-10-01T12:56:59.023Z,10.98
2022-10-01T12:59:33.556Z,10.98
2022-10-01T13:02:00.266Z,10.85
2022-10-01T13:04:51.597Z,8.88
2022-10-01T13:07:30.371Z,10.45
2022-10-01T13:10:08.488Z,7.53
2022-10-01T13:12:44.436Z,10.90
2022-10-01T13:15:15.873Z,9.02
2022-10-01T13:17:52.548Z,8.25
2022-10-01T13:20:41.344Z,10.38
2022-10-01T13:23:20.382Z,11.13
2022-10-01T13:25:47.609Z,11.45
2022-10-01T13:28:31.235Z,6.72
2022-10-01T13:31:10.289Z,6.88
2022-10-01T13:33:37.801Z,9.18
2022-10-01T13:36:06.716Z,8.68
2022-10-01T13:38:39.386Z,6.95
2022-10-01T13:41:23.181Z,7.43
2022-10-01T13:44:11.215Z,11.02
2022-10-01T13:46:54.617Z,8.85
2022-10-01T13:49:30.529Z,8.48
2022-10-01T13:51:59.571Z,7.63
2022-10-01T13:54:47.455Z,6.97
2022-10-01T13:57:38.049Z,7.05
2022-10-01T14:00:33.780Z,6.00
2022-10-01T14:03:37.870Z,4.80
2022-10-01T14:06:08.462Z,5.90
2022-10-01T14:08:46.865Z,6.25
2022-10-01T14:11:35.643Z,9.18
2022-10-01T14:14:56.111Z,7.22
2022-10-01T14:17:31.604Z,5.00
2022-10-01T14:20:00.998Z,6.07
2022-10-01T14:22:30.977Z,5.57
2022-10-01T14:25:23.765Z,5.13
2022-10-01T14:28:02.723Z,7.32
2022-10-01T14:31:07.045Z,7.05
2022-10-01T14:33:51.877Z,7.40
2022-10-01T14:36:26.205Z,6.90
2022-10-01T14:39:13.052Z,4.47
2022-10-01T14:41:39.650Z,6.97
2022-10-01T14:44:19.150Z,4.07
2022-10-01T14:46:46.055Z,5.00
2022-10-01T14:49:32.702Z,10.57
2022-10-01T14:52:17.839Z,6.78
2022-10-01T14:55:00.315Z,6.97
2022-10-01T14:57:49.787Z,7.43
2022-10-01T15:00:23.188Z,6.45
2022-10-01T15:03:03.753Z,9.10
2022-10-01T15:05:33.486Z,8.27
2022-10-01T15:08:23.215Z,5.18
2022-10-01T15:11:01.180Z,5.40
2022-10-01T15:13:33.072Z,4.65
2022-10-01T15:16:00.116Z,7.70
2022-10-01T15:18:28.310Z,6.18
2022-10-01T15:21:02.766Z,5.82
2022-10-01T15:23:32.469Z,5.40
2022-10-01T15:26:02.059Z,4.97
2022-10-01T15:28:32.340Z,5.80
2022-10-01T15:31:03.949Z,5.45
2022-10-01T15:33:40.511Z,9.23
2022-10-01T15:36:17.294Z,6.47
2022-10-01T15:38:46.519Z,9.23
2022-10-01T15:41:40.324Z,8.65
2022-10-01T15:44:27.662Z,8.60
2022-10-01T15:46:54.273Z,6.20
2022-10-01T15:49:25.074Z,6.43
2022-10-01T15:52:19.713Z,7.22
2022-10-01T15:54:47.730Z,7.15
2022-10-01T15:57:21.095Z,5.75
2022-10-01T15:59:54.489Z,6.55
2022-10-01T16:02:25.953Z,5.15
2022-10-01T16:04:56.258Z,19.05
2022-10-01T16:07:30.082Z,7.72
2022-10-01T16:09:59.433Z,4.05
2022-10-01T16:12:29.638Z,8.75
2022-10-01T16:14:56.198Z,7.45
2022-10-01T16:17:35.169Z,5.10
2022-10-01T16:20:14.248Z,8.73
2022-10-01T16:22:41.234Z,6.47
2022-10-01T16:25:19.931Z,6.93
2022-10-01T16:28:00.982Z,8.55
2022-10-01T16:30:32.192Z,8.02
2022-10-01T16:33:02.535Z,9.15
2022-10-01T16:35:32.678Z,4.97
2022-10-01T16:37:59.672Z,8.68
2022-10-01T16:40:32.451Z,7.55
2022-10-01T16:43:00.523Z,11.20
2022-10-01T16:45:32.903Z,9.20
2022-10-01T16:48:01.074Z,6.82
2022-10-01T16:50:30.166Z,7.25
2022-10-01T16:52:57.029Z,9.60
2022-10-01T16:55:27.261Z,7.25
2022-10-01T16:57:56.962Z,10.38
2022-10-01T17:00:27.918Z,6.95
2022-10-01T17:02:55.997Z,7.78
2022-10-01T17:05:31.964Z,8.23
2022-10-01T17:08:01.392Z,11.10
2022-10-01T17:10:31.840Z,26.42
2022-10-01T17:12:59.677Z,8.48
2022-10-01T17:15:28.270Z,8.85
2022-10-01T17:17:57.265Z,11.10
2022-10-01T17:20:26.568Z,9.57
2022-10-01T17:22:53.559Z,11.02
2022-10-01T17:25:23.257Z,14.45
2022-10-01T17:27:50.526Z,7.97
2022-10-01T17:30:17.710Z,10.85
2022-10-01T17:32:45.121Z,13.73
2022-10-01T17:35:13.621Z,10.43
2022-10-01T17:37:41.400Z,14.55
2022-10-01T17:40:09.610Z,15.35
2022-10-01T17:42:36.761Z,11.35
2022-10-01T17:45:06.617Z,14.55
2022-10-01T17:47:34.066Z,10.95
2022-10-01T17:50:01.422Z,11.85
2022-10-01T17:52:28.509Z,10.98
2022-10-01T17:54:55.358Z,13.80
2022-10-01T17:57:22.333Z,7.70
2022-10-01T17:59:49.061Z,15.55
2022-10-01T18:02:39.883Z,14.25
2022-10-01T18:05:04.279Z,15.13
2022-10-01T18:07:30.850Z,14.32
2022-10-01T18:09:57.607Z,14.32
2022-10-01T18:12:24.303Z,15.20
2022-10-01T18:14:50.874Z,12.90
2022-10-01T18:17:18.070Z,11.93
2022-10-01T18:19:53.665Z,21.60
2022-10-01T18:22:21.667Z,13.30
2022-10-01T18:24:48.336Z,11.60
2022-10-01T18:27:15.262Z,15.02
2022-10-01T18:29:42.178Z,11.45
2022-10-01T18:32:16.249Z,13.70
2022-10-01T18:35:00.903Z,13.77
2022-10-01T18:37:45.953Z,15.93
2022-10-01T18:40:34.936Z,15.20
2022-10-01T18:43:19.965Z,17.85
2022-10-01T18:45:52.780Z,13.20
2022-10-01T18:48:31.449Z,17.55
2022-10-01T18:51:16.436Z,11.85
2022-10-01T18:54:05.007Z,13.60
2022-10-01T18:56:35.597Z,25.90
2022-10-01T18:59:08.161Z,15.27
2022-10-01T19:01:48.352Z,13.00
2022-10-01T19:04:24.580Z,16.65
2022-10-01T19:07:10.575Z,16.75
2022-10-01T19:09:39.988Z,12.77
2022-10-01T19:12:18.958Z,13.68
2022-10-01T19:14:58.320Z,17.30
2022-10-01T19:18:01.232Z,20.20
2022-10-01T19:20:37.231Z,11.73
2022-10-01T19:23:19.811Z,15.93
2022-10-01T19:26:25.177Z,19.25
2022-10-01T19:29:04.696Z,17.75
2022-10-01T19:31:59.205Z,15.63
2022-10-01T19:34:44.485Z,19.40
2022-10-01T19:37:17.900Z,27.27
2022-10-01T19:39:49.225Z,21.08
2022-10-01T19:42:37.452Z,13.15
2022-10-01T19:45:04.841Z,14.52
2022-10-01T19:47:37.924Z,10.23
2022-10-01T19:50:20.009Z,16.77
2022-10-01T19:52:51.611Z,15.43
2022-10-01T19:55:21.174Z,18.90
2022-10-01T19:57:48.344Z,12.15
2022-10-01T20:00:19.781Z,14.00
2022-10-01T20:03:11.681Z,16.50
2022-10-01T20:05:51.157Z,13.45
2022-10-01T20:08:52.699Z,22.77
2022-10-01T20:11:29.529Z,21.35
2022-10-01T20:14:46.264Z,14.30
2022-10-01T20:17:44.650Z,11.18
2022-10-01T20:20:11.810Z,15.10
2022-10-01T20:23:00.366Z,12.70
2022-10-01T20:25:39.930Z,20.30
2022-10-01T20:28:35.377Z,22.30
2022-10-01T20:31:23.275Z,22.05
2022-10-01T20:33:56.527Z,14.27
2022-10-01T20:36:39.278Z,15.60
2022-10-01T20:39:19.833Z,14.70
2022-10-01T20:41:49.553Z,15.82
2022-10-01T20:44:22.517Z,14.02
2022-10-01T20:46:53.553Z,14.15
2022-10-01T20:49:39.101Z,17.50
2022-10-01T20:52:31.549Z,14.10
2022-10-01T20:55:15.104Z,11.70
2022-10-01T20:57:53.628Z,11.15
2022-10-01T21:00:25.059Z,9.10
2022-10-01T21:03:27.615Z,18.77
2022-10-01T21:06:03.840Z,15.93
2022-10-01T21:08:42.775Z,11.18
2022-10-01T21:11:26.423Z,16.10
2022-10-01T21:14:09.582Z,13.48
2022-10-01T21:17:10.144Z,14.63
2022-10-01T21:19:55.073Z,12.43
2022-10-01T21:22:44.525Z,16.73
2022-10-01T21:25:14.206Z,17.08
2022-10-01T21:28:19.691Z,12.80
2022-10-01T21:30:49.505Z,16.98
2022-10-01T21:33:24.395Z,14.27
2022-10-01T21:35:57.000Z,14.07
2022-10-01T21:38:41.833Z,14.75
2022-10-01T21:41:38.344Z,12.70
2022-10-01T21:44:29.781Z,17.30
2022-10-01T21:47:09.098Z,20.65
2022-10-01T21:50:14.214Z,12.23
2022-10-01T21:52:57.598Z,13.40
2022-10-01T21:55:35.917Z,14.75
2022-10-01T21:58:29.880Z,14.32
2022-10-01T22:01:16.162Z,14.43
2022-10-01T22:04:07.277Z,19.35
2022-10-01T22:06:40.917Z,11.40
2022-10-01T22:09:16.848Z,12.80
2022-10-01T22:11:52.190Z,18.23
2022-10-01T22:14:21.389Z,20.23
2022-10-01T22:16:58.742Z,15.45
2022-10-01T22:19:31.700Z,20.33
2022-10-01T22:22:30.002Z,14.65
2022-10-01T22:24:59.561Z,17.23
2022-10-01T22:27:39.989Z,15.13
2022-10-01T22:30:14.446Z,17.17
2022-10-01T22:32:51.051Z,17.58
2022-10-01T22:35:29.021Z,10.32
2022-10-01T22:38:12.678Z,13.00
2022-10-01T22:40:46.504Z,19.92
2022-10-01T22:43:14.723Z,16.92
2022-10-01T22:46:20.262Z,16.98
2022-10-01T22:49:03.906Z,14.00
2022-10-01T22:51:44.248Z,15.55
2022-10-01T22:54:42.563Z,14.25
2022-10-01T22:57:43.160Z,12.95
2022-10-01T23:00:13.672Z,15.82
2022-10-01T23:02:45.720Z,18.88
2022-10-01T23:05:50.298Z,14.60
2022-10-01T23:08:40.742Z,16.92
2022-10-01T23:11:30.517Z,19.00
2022-10-01T23:14:17.058Z,13.65
2022-10-01T23:16:59.268Z,17.10
2022-10-01T23:19:32.623Z,14.30
2022-10-01T23:22:24.176Z,17.30
2022-10-01T23:25:38.502Z,23.05
2022-10-01T23:28:19.495Z,22.58
2022-10-01T23:31:00.203Z,12.35
2022-10-01T23:33:53.712Z,18.10
2022-10-01T23:36:20.537Z,22.83
2022-10-01T23:39:03.126Z,19.38
2022-10-01T23:41:49.714Z,19.60
2022-10-01T23:44:39.988Z,18.08
2022-10-01T23:47:16.610Z,25.08
2022-10-01T23:49:51.275Z,17.70
2022-10-01T23:52:38.671Z,21.63
2022-10-01T23:55:49.314Z,18.98
2022-10-01T23:58:17.610Z,23.08
